CheckWX is a tool to help pilots better visualize weather data.  It is not intended as a substitute for an official pre-flight weather briefing.

19:16:03 UTC

KAPY METAR
Zapata County Airport
Zapata, Texas, USA
Current

21 mins ago

KAPY 261855Z AUTO 14012G19KT 10SM SCT048 BKN055 BKN075 35/19 A2994 RMK AO2 T03480192
Observed
May-26 @ 18:55 UTC
Wind
  • 140° at 12 KTS
  • Gusting to 19 KTS
Visibility
10 SM
Flight Rules
VFR
Cloud Levels
  • Scattered at 4,800' AGL
  • Broken at 5,500' AGL
  • Broken at 7,500' AGL
Temperature
35°C / 95°F
Dewpoint
19°C / 66°F
Humidity
39%
Altimeter
29.94" Hg
Pressure
1013.92 hPa
Previous

41 mins ago

KAPY 261835Z AUTO 13012G22KT 7SM BKN046 BKN050 BKN065 33/19 A2995 RMK AO2 T03380195
Observed
May-26 @ 18:35 UTC
Wind
  • 130° at 12 KTS
  • Gusting to 22 KTS
Visibility
7 SM
Flight Rules
VFR
Cloud Levels
  • Broken at 4,600' AGL
  • Broken at 5,000' AGL
  • Broken at 6,500' AGL
Temperature
34°C / 93°F
Dewpoint
20°C / 68°F
Heat Index
36°C / 97°F
Humidity
44%
Altimeter
29.95" Hg
Pressure
1014.22 hPa
Previous

1 hour ago

KAPY 261815Z AUTO 15016G22KT 7SM SCT044 BKN050 33/20 A2995 RMK AO2 T03340197
Observed
May-26 @ 18:15 UTC
Wind
  • 150° at 16 KTS
  • Gusting to 22 KTS
Visibility
7 SM
Flight Rules
VFR
Cloud Levels
  • Scattered at 4,400' AGL
  • Broken at 5,000' AGL
Temperature
33°C / 91°F
Dewpoint
20°C / 68°F
Heat Index
35°C / 95°F
Humidity
46%
Altimeter
29.95" Hg
Pressure
1014.22 hPa